Time;durP1;ratioP1;P1;durP2;ratioP2;P2;SDS_P1;SDS_P2;PMS_P1;PMS_P2;Temp;Humidity;BMP_temperature;BMP_pressure;BME280_temperature;BME280_humidity;BME280_pressure;Samples;Min_cycle;Max_cycle;Signal;HPM_P1;HPM_P2
2022/03/23 00:00:27;;;;;;;;;2.00;0.00;24.80;99.90;;;;;;5071594;28;8849;-49
2022/03/23 00:02:59;;;;;;;;;1.50;0.00;24.70;99.90;;;;;;5063570;28;8867;-50
2022/03/23 00:05:30;;;;;;;;;0.75;0.75;24.70;99.90;;;;;;5068800;28;8845;-49
2022/03/23 00:08:00;;;;;;;;;1.00;0.50;24.70;99.90;;;;;;5072778;28;9017;-46
2022/03/23 00:10:32;;;;;;;;;1.25;0.75;24.60;99.90;;;;;;5071591;28;8846;-49
2022/03/23 00:13:04;;;;;;;;;1.00;1.00;24.60;99.90;;;;;;5073884;28;8861;-47
2022/03/23 00:15:36;;;;;;;;;1.00;0.00;24.50;99.90;;;;;;5069565;28;8906;-50
2022/03/23 00:18:06;;;;;;;;;0.00;0.00;24.50;99.90;;;;;;5065856;28;8883;-46
2022/03/23 00:20:36;;;;;;;;;0.00;0.00;24.50;99.90;;;;;;5069335;28;8845;-50
2022/03/23 00:23:09;;;;;;;;;1.00;1.00;24.40;99.90;;;;;;5072975;28;8994;-47
2022/03/23 00:25:39;;;;;;;;;0.25;0.25;24.40;99.90;;;;;;5074924;28;8865;-47
2022/03/23 00:28:10;;;;;;;;;1.00;1.00;24.40;99.90;;;;;;5071758;28;8838;-48
2022/03/23 00:30:42;;;;;;;;;0.50;0.50;24.30;99.90;;;;;;5067251;28;9845;-50
2022/03/23 00:33:32;;;;;;;;;1.00;0.00;24.20;99.90;;;;;;5069918;28;8867;-45
2022/03/23 00:36:05;;;;;;;;;0.75;0.75;24.20;99.90;;;;;;5069142;28;8848;-46
2022/03/23 00:38:38;;;;;;;;;1.00;1.00;24.20;99.90;;;;;;5072600;28;8797;-47
2022/03/23 00:41:10;;;;;;;;;0.00;0.00;24.10;99.90;;;;;;5066190;28;8860;-50
2022/03/23 00:43:42;;;;;;;;;1.00;0.75;24.00;99.90;;;;;;5078882;28;8948;-47
2022/03/23 00:46:14;;;;;;;;;1.00;1.00;24.00;99.90;;;;;;5066828;28;8870;-49
2022/03/23 00:48:45;;;;;;;;;0.00;0.00;24.00;99.90;;;;;;5060111;28;9041;-48
2022/03/23 00:51:15;;;;;;;;;0.00;0.00;24.00;99.90;;;;;;5073614;28;8866;-48
2022/03/23 00:53:46;;;;;;;;;0.00;0.00;23.90;99.90;;;;;;5067649;28;9011;-51
2022/03/23 00:56:16;;;;;;;;;0.75;0.75;24.00;99.90;;;;;;5074132;28;8844;-46
2022/03/23 00:58:47;;;;;;;;;2.25;0.00;23.90;99.90;;;;;;5067620;28;9585;-46
2022/03/23 01:01:19;;;;;;;;;0.75;0.75;23.90;99.90;;;;;;5070865;28;8891;-50
2022/03/23 01:03:51;;;;;;;;;0.00;0.00;23.80;99.90;;;;;;5082022;28;8847;-47
2022/03/23 01:06:21;;;;;;;;;0.00;0.00;23.70;99.90;;;;;;5074090;28;9730;-49
2022/03/23 01:08:52;;;;;;;;;0.00;0.00;23.70;99.90;;;;;;5074252;28;8899;-48
2022/03/23 01:11:23;;;;;;;;;0.00;0.00;23.70;99.90;;;;;;5065307;28;8864;-50
2022/03/23 01:13:54;;;;;;;;;1.00;0.00;23.70;99.90;;;;;;5072513;28;8841;-49
2022/03/23 01:16:24;;;;;;;;;0.00;0.00;23.70;99.90;;;;;;5068275;28;8838;-50
2022/03/23 01:18:55;;;;;;;;;0.00;0.00;23.60;99.90;;;;;;5070983;28;8861;-46
2022/03/23 01:21:25;;;;;;;;;0.00;0.00;23.60;99.90;;;;;;5076477;28;8969;-49
2022/03/23 01:23:56;;;;;;;;;1.00;0.00;23.60;99.90;;;;;;5063227;28;8836;-48
2022/03/23 01:26:28;;;;;;;;;0.00;0.00;23.60;99.90;;;;;;5066555;28;8847;-50
2022/03/23 01:28:59;;;;;;;;;0.00;0.00;23.60;99.90;;;;;;5066501;28;9678;-47
2022/03/23 01:31:31;;;;;;;;;0.75;0.75;23.50;99.90;;;;;;5065614;28;8955;-49
2022/03/23 01:34:04;;;;;;;;;1.00;0.00;23.60;99.90;;;;;;5073432;27;8882;-48
2022/03/23 01:36:33;;;;;;;;;0.00;0.00;23.60;99.90;;;;;;5071066;27;8838;-48
2022/03/23 01:39:04;;;;;;;;;0.00;0.00;23.50;99.90;;;;;;5065871;28;8824;-50
2022/03/23 01:41:37;;;;;;;;;0.00;0.00;23.50;99.90;;;;;;5073624;28;8871;-49
2022/03/23 01:44:19;;;;;;;;;0.00;0.00;23.40;99.90;;;;;;5074062;28;8873;-48
2022/03/23 01:47:10;;;;;;;;;0.00;0.00;23.30;99.90;;;;;;5078559;28;8929;-49
2022/03/23 01:49:43;;;;;;;;;0.00;0.00;23.30;99.90;;;;;;5076142;28;8859;-48
2022/03/23 01:52:16;;;;;;;;;0.00;0.00;23.30;99.90;;;;;;5070654;28;8870;-50
2022/03/23 01:54:48;;;;;;;;;1.00;1.00;23.20;99.90;;;;;;5077513;28;8832;-48
2022/03/23 01:57:21;;;;;;;;;2.00;0.00;23.20;99.90;;;;;;5068081;28;8857;-48
2022/03/23 01:59:52;;;;;;;;;1.00;0.00;23.10;99.90;;;;;;5069870;28;8918;-49
2022/03/23 02:02:25;;;;;;;;;0.00;0.00;23.10;99.90;;;;;;5074240;28;8877;-47
2022/03/23 02:05:01;;;;;;;;;0.00;0.00;23.10;99.90;;;;;;5076911;28;8884;-46
2022/03/23 02:07:31;;;;;;;;;1.00;0.00;23.10;99.90;;;;;;5083925;28;9013;-44
2022/03/23 02:10:04;;;;;;;;;0.00;0.00;23.10;99.90;;;;;;5078964;28;8900;-49
2022/03/23 02:12:58;;;;;;;;;0.25;0.25;23.00;99.90;;;;;;5074163;28;9019;-47
2022/03/23 02:15:29;;;;;;;;;0.50;0.25;22.90;99.90;;;;;;5065987;28;8892;-47
2022/03/23 02:18:00;;;;;;;;;0.00;0.00;22.80;99.90;;;;;;5076254;28;8855;-47
2022/03/23 02:20:31;;;;;;;;;0.00;0.00;22.80;99.90;;;;;;5073492;28;8876;-48
2022/03/23 02:23:02;;;;;;;;;0.00;0.00;22.80;99.90;;;;;;5082693;28;8857;-46
2022/03/23 02:25:33;;;;;;;;;0.00;0.00;22.90;99.90;;;;;;5072752;28;9600;-49
2022/03/23 02:28:06;;;;;;;;;0.00;0.00;22.80;99.90;;;;;;5080217;27;9025;-49
2022/03/23 02:30:36;;;;;;;;;0.00;0.00;22.80;99.90;;;;;;5071549;28;8842;-50
2022/03/23 02:33:09;;;;;;;;;0.00;0.00;22.80;99.90;;;;;;5070405;28;8849;-50
2022/03/23 02:35:40;;;;;;;;;0.00;0.00;22.70;99.90;;;;;;5070727;28;8949;-49
2022/03/23 02:38:10;;;;;;;;;1.00;1.00;22.70;99.90;;;;;;5077408;28;8865;-48
2022/03/23 02:40:41;;;;;;;;;0.00;0.00;22.70;99.90;;;;;;5072227;28;8877;-46
2022/03/23 02:43:11;;;;;;;;;1.00;1.00;22.60;99.90;;;;;;5073900;28;9646;-46
2022/03/23 02:45:42;;;;;;;;;1.00;1.00;22.50;99.90;;;;;;5077751;28;9621;-47
2022/03/23 02:48:13;;;;;;;;;1.00;1.00;22.40;99.90;;;;;;5070395;28;8899;-46
2022/03/23 02:50:45;;;;;;;;;0.00;0.00;22.50;99.90;;;;;;5078543;28;8837;-45
2022/03/23 03:02:18;;;;;;;;;1.25;1.25;22.30;99.90;;;;;;5077249;28;8873;-48
2022/03/23 03:04:50;;;;;;;;;1.00;1.00;22.20;99.90;;;;;;5068774;28;8874;-46
2022/03/23 03:07:20;;;;;;;;;1.00;1.00;22.10;99.90;;;;;;5075300;28;9332;-47
2022/03/23 03:09:51;;;;;;;;;3.33;3.33;22.00;99.90;;;;;;5074028;28;8978;-51
2022/03/23 03:12:22;;;;;;;;;1.00;1.00;22.00;99.90;;;;;;5082747;28;8964;-50
2022/03/23 03:14:52;;;;;;;;;2.00;2.00;22.00;99.90;;;;;;5079560;28;9459;-52
2022/03/23 03:17:23;;;;;;;;;1.50;1.50;21.90;99.90;;;;;;5077496;28;8935;-50
2022/03/23 03:19:54;;;;;;;;;1.00;1.00;21.90;99.90;;;;;;5069116;28;8856;-49
2022/03/23 03:22:25;;;;;;;;;2.25;2.25;21.90;99.90;;;;;;5068439;28;9930;-49
2022/03/23 03:24:56;;;;;;;;;2.33;2.33;21.70;99.90;;;;;;5077335;28;8873;-51
2022/03/23 03:27:28;;;;;;;;;3.33;3.00;21.60;99.90;;;;;;5071562;28;9101;-49
2022/03/23 03:29:59;;;;;;;;;2.33;1.33;21.60;99.90;;;;;;5077044;28;9248;-45
2022/03/23 03:32:29;;;;;;;;;1.67;1.67;21.60;99.90;;;;;;5069913;28;9025;-51
2022/03/23 03:34:59;;;;;;;;;3.00;1.00;21.60;99.90;;;;;;5068008;28;8923;-46
2022/03/23 03:37:30;;;;;;;;;1.00;1.00;21.60;99.90;;;;;;5069122;28;9038;-46
2022/03/23 03:40:01;;;;;;;;;1.67;1.67;21.60;99.90;;;;;;5079124;28;9108;-49
2022/03/23 03:42:32;;;;;;;;;1.00;1.00;21.50;99.90;;;;;;5074501;28;9097;-48
2022/03/23 03:45:06;;;;;;;;;3.33;2.00;21.50;99.90;;;;;;5073745;28;9195;-52
2022/03/23 03:47:37;;;;;;;;;1.00;1.00;21.40;99.90;;;;;;5070562;28;9101;-49
2022/03/23 03:50:08;;;;;;;;;1.00;1.00;21.40;99.90;;;;;;5079892;28;9069;-47
2022/03/23 03:52:40;;;;;;;;;1.00;1.00;21.30;99.90;;;;;;5071572;28;9295;-47
2022/03/23 03:55:10;;;;;;;;;1.33;1.33;21.20;99.90;;;;;;5080981;28;9171;-52
2022/03/23 03:57:42;;;;;;;;;2.00;2.00;21.30;99.90;;;;;;5075300;28;9154;-48
2022/03/23 04:00:13;;;;;;;;;1.00;1.00;21.30;99.90;;;;;;5076678;28;9187;-50
2022/03/23 04:02:43;;;;;;;;;2.00;2.00;21.20;99.90;;;;;;5073219;28;9290;-51
2022/03/23 04:05:14;;;;;;;;;2.67;2.67;21.20;99.90;;;;;;5076117;28;9308;-49
2022/03/23 04:07:45;;;;;;;;;2.00;2.00;21.20;99.90;;;;;;5078037;28;9258;-49
2022/03/23 04:10:17;;;;;;;;;1.00;1.00;21.20;99.90;;;;;;5075995;28;8986;-49
2022/03/23 04:12:47;;;;;;;;;3.00;2.00;21.10;99.90;;;;;;5076236;28;9261;-49
2022/03/23 04:15:20;;;;;;;;;1.00;1.00;21.00;99.90;;;;;;5074836;28;9252;-49
2022/03/23 04:17:52;;;;;;;;;2.00;2.00;21.00;99.90;;;;;;5074539;28;9531;-49
2022/03/23 04:20:23;;;;;;;;;2.00;1.00;20.90;99.90;;;;;;5074755;28;10181;-47
2022/03/23 04:22:54;;;;;;;;;2.00;2.00;20.90;99.90;;;;;;5073161;28;9157;-47
2022/03/23 04:25:25;;;;;;;;;2.00;2.00;20.80;99.90;;;;;;5078842;28;9200;-49
2022/03/23 04:27:57;;;;;;;;;1.00;1.00;20.80;99.90;;;;;;5073399;28;9685;-50
2022/03/23 04:30:30;;;;;;;;;2.00;2.00;20.80;99.90;;;;;;5074229;28;9162;-48
2022/03/23 04:33:02;;;;;;;;;2.00;2.00;20.70;99.90;;;;;;5080223;28;9308;-51
2022/03/23 04:35:33;;;;;;;;;1.33;1.33;20.70;99.90;;;;;;5074282;28;9330;-51
2022/03/23 04:38:03;;;;;;;;;4.67;2.00;20.70;99.90;;;;;;5064956;28;9315;-52
2022/03/23 04:40:37;;;;;;;;;1.00;1.00;20.70;99.90;;;;;;5072317;28;9352;-50
2022/03/23 04:43:09;;;;;;;;;1.67;1.67;20.70;99.90;;;;;;5082231;28;9176;-48
2022/03/23 04:45:40;;;;;;;;;1.33;1.33;20.60;99.90;;;;;;5074022;28;9341;-49
2022/03/23 04:48:12;;;;;;;;;1.33;1.33;20.50;99.90;;;;;;5083154;28;10377;-49
2022/03/23 04:50:44;;;;;;;;;4.00;3.00;20.40;99.90;;;;;;5081231;28;9176;-48
2022/03/23 04:53:14;;;;;;;;;2.00;2.00;20.40;99.90;;;;;;5080231;28;9424;-49
2022/03/23 04:55:45;;;;;;;;;3.00;3.00;20.30;99.90;;;;;;5075764;28;9367;-50
2022/03/23 04:58:15;;;;;;;;;2.00;2.00;20.30;99.90;;;;;;5076275;28;10073;-48
2022/03/23 05:00:46;;;;;;;;;2.00;2.00;20.20;99.90;;;;;;5070936;28;9201;-48
2022/03/23 05:03:18;;;;;;;;;4.00;2.67;20.10;99.90;;;;;;5078586;28;9403;-50
2022/03/23 05:05:48;;;;;;;;;1.00;1.00;20.00;99.90;;;;;;5077584;28;9574;-49
2022/03/23 05:08:19;;;;;;;;;2.33;1.67;20.00;99.90;;;;;;5078840;28;9346;-44
2022/03/23 05:10:51;;;;;;;;;2.00;2.00;19.90;99.90;;;;;;5081260;28;9542;-49
2022/03/23 05:13:22;;;;;;;;;4.00;4.00;20.00;99.90;;;;;;5083878;28;9377;-51
2022/03/23 05:15:53;;;;;;;;;7.00;4.00;19.90;99.90;;;;;;5087886;28;9508;-49
2022/03/23 05:18:25;;;;;;;;;2.00;2.00;19.80;99.90;;;;;;5085103;28;9476;-46
2022/03/23 05:20:56;;;;;;;;;1.00;1.00;19.70;99.90;;;;;;5081551;27;9653;-47
2022/03/23 05:23:26;;;;;;;;;3.50;2.00;19.70;99.90;;;;;;5080470;28;9590;-49
2022/03/23 05:25:58;;;;;;;;;2.00;2.00;19.60;99.90;;;;;;5074555;28;9680;-49
2022/03/23 05:28:33;;;;;;;;;4.00;2.00;19.60;99.90;;;;;;5078648;28;9580;-49
2022/03/23 05:31:02;;;;;;;;;1.00;1.00;19.60;99.90;;;;;;5083344;28;9520;-48
2022/03/23 05:33:34;;;;;;;;;1.67;1.67;19.50;99.90;;;;;;5080292;28;9678;-48
2022/03/23 05:36:05;;;;;;;;;4.25;4.25;19.50;99.90;;;;;;5077428;28;9472;-49
2022/03/23 05:38:37;;;;;;;;;2.50;2.50;19.50;99.90;;;;;;5085703;28;9699;-49
2022/03/23 05:41:07;;;;;;;;;2.00;1.00;19.50;99.90;;;;;;5078714;28;9624;-47
2022/03/23 05:43:39;;;;;;;;;2.00;2.00;19.40;99.90;;;;;;5086963;28;9753;-48
2022/03/23 05:46:11;;;;;;;;;3.25;2.75;19.40;99.90;;;;;;5078889;28;9466;-47
2022/03/23 05:48:43;;;;;;;;;1.00;1.00;19.40;99.90;;;;;;5083650;27;9694;-49
2022/03/23 05:51:13;;;;;;;;;1.67;1.67;19.30;99.90;;;;;;5075353;27;9764;-49
2022/03/23 05:53:43;;;;;;;;;2.75;2.75;19.30;99.90;;;;;;5074012;28;9321;-49
2022/03/23 05:56:15;;;;;;;;;3.00;3.00;19.20;99.90;;;;;;5082095;28;9692;-49
2022/03/23 05:58:46;;;;;;;;;2.75;1.00;19.10;99.90;;;;;;5087844;27;10016;-49
2022/03/23 06:01:16;;;;;;;;;2.00;2.00;19.10;99.90;;;;;;5069755;28;9949;-52
2022/03/23 06:03:49;;;;;;;;;2.00;1.75;19.10;99.90;;;;;;5081549;28;10100;-49
2022/03/23 06:06:20;;;;;;;;;3.25;1.75;19.00;99.90;;;;;;5079423;28;10318;-48
2022/03/23 06:08:51;;;;;;;;;3.50;3.50;19.00;99.90;;;;;;5073270;28;10326;-50
2022/03/23 06:11:22;;;;;;;;;3.25;3.25;19.00;99.90;;;;;;5079026;28;10306;-50
2022/03/23 06:13:53;;;;;;;;;1.50;1.50;18.90;99.90;;;;;;5072565;28;10305;-49
2022/03/23 06:16:24;;;;;;;;;3.00;3.00;18.90;99.90;;;;;;5085201;28;10214;-49
2022/03/23 06:18:56;;;;;;;;;2.75;2.75;18.90;99.90;;;;;;5082001;27;10465;-50
2022/03/23 06:21:27;;;;;;;;;3.75;3.75;18.90;99.90;;;;;;5073852;28;10517;-48
2022/03/23 06:23:57;;;;;;;;;3.50;2.00;18.80;99.90;;;;;;5069703;28;10893;-49
2022/03/23 06:26:29;;;;;;;;;4.00;2.75;18.80;99.90;;;;;;5074832;28;10696;-50
2022/03/23 06:28:59;;;;;;;;;3.50;3.25;18.80;99.90;;;;;;5066506;28;10786;-50
2022/03/23 06:31:29;;;;;;;;;3.00;3.00;18.70;99.90;;;;;;5075252;28;10752;-49
2022/03/23 06:33:59;;;;;;;;;2.50;2.50;18.70;99.90;;;;;;5069675;28;10761;-48
2022/03/23 06:36:30;;;;;;;;;3.00;3.00;18.70;99.90;;;;;;5064037;28;11605;-49
2022/03/23 06:39:00;;;;;;;;;2.75;2.75;18.60;99.90;;;;;;5082517;27;10675;-50
2022/03/23 06:41:30;;;;;;;;;3.50;2.00;18.60;99.90;;;;;;5080715;28;10380;-46
2022/03/23 06:44:02;;;;;;;;;2.50;2.50;18.60;99.90;;;;;;5081520;28;10606;-50
2022/03/23 06:46:33;;;;;;;;;1.50;0.75;18.50;99.90;;;;;;5068363;28;10262;-51
2022/03/23 06:49:03;;;;;;;;;2.50;2.50;18.50;99.90;;;;;;5076762;28;10412;-50
2022/03/23 06:51:33;;;;;;;;;1.75;1.75;18.50;99.90;;;;;;5075481;28;9876;-48
2022/03/23 06:54:04;;;;;;;;;2.75;2.75;18.40;99.90;;;;;;5074464;28;10241;-46
2022/03/23 06:56:36;;;;;;;;;3.00;3.00;18.40;99.90;;;;;;5073341;28;10031;-47
2022/03/23 06:59:08;;;;;;;;;3.00;3.00;18.40;99.90;;;;;;5075943;28;10090;-49
2022/03/23 07:01:38;;;;;;;;;6.75;5.50;18.30;99.90;;;;;;5071658;27;10175;-49
2022/03/23 07:04:07;;;;;;;;;2.25;2.25;18.30;99.90;;;;;;5073877;28;10185;-48
2022/03/23 07:06:39;;;;;;;;;1.25;1.25;18.30;99.90;;;;;;5070020;27;10106;-48
2022/03/23 07:12:04;;;;;;;;;2.25;1.00;18.30;99.90;;;;;;5066388;28;10111;-45
2022/03/23 07:14:36;;;;;;;;;0.75;0.75;18.20;99.90;;;;;;5080526;28;10032;-46
2022/03/23 07:17:10;;;;;;;;;1.00;1.00;18.20;99.90;;;;;;5067462;28;10218;-51
2022/03/23 07:19:39;;;;;;;;;1.00;1.00;18.20;99.90;;;;;;5071297;28;10411;-49
2022/03/23 07:22:11;;;;;;;;;2.00;2.00;18.20;99.90;;;;;;5065881;28;11035;-47
2022/03/23 07:24:42;;;;;;;;;2.00;1.25;18.10;99.90;;;;;;5075780;28;11419;-48
2022/03/23 07:27:13;;;;;;;;;2.75;0.75;18.10;99.90;;;;;;5073399;28;10599;-49
2022/03/23 07:29:49;;;;;;;;;3.25;3.00;18.00;99.90;;;;;;5070940;28;10512;-49
2022/03/23 07:32:23;;;;;;;;;2.00;2.00;18.00;99.90;;;;;;5074064;28;10321;-47
2022/03/23 07:34:54;;;;;;;;;2.50;2.50;18.00;99.90;;;;;;5076213;28;10450;-46
2022/03/23 07:37:24;;;;;;;;;3.50;3.50;17.90;99.90;;;;;;5074238;28;10537;-46
2022/03/23 07:39:55;;;;;;;;;2.00;2.00;18.00;99.90;;;;;;5070078;28;10641;-50
2022/03/23 07:42:31;;;;;;;;;2.50;2.50;17.90;99.90;;;;;;5077065;28;10747;-48
2022/03/23 07:45:02;;;;;;;;;2.75;2.75;17.90;99.90;;;;;;5071628;28;10558;-48
2022/03/23 07:47:33;;;;;;;;;3.25;2.75;17.90;99.90;;;;;;5069747;28;10668;-46
2022/03/23 07:50:04;;;;;;;;;4.75;3.75;17.90;99.90;;;;;;5078293;28;10524;-50
2022/03/23 07:52:35;;;;;;;;;4.00;4.00;17.80;99.90;;;;;;5061963;28;10650;-46
2022/03/23 07:55:06;;;;;;;;;3.75;3.75;17.80;99.90;;;;;;5071533;28;10630;-46
2022/03/23 07:57:36;;;;;;;;;5.00;3.00;17.70;99.90;;;;;;5072606;28;10697;-48
2022/03/23 08:00:09;;;;;;;;;5.00;5.00;17.70;99.90;;;;;;5070345;28;10738;-47
2022/03/23 08:02:43;;;;;;;;;5.75;3.75;17.70;99.90;;;;;;5066413;28;11218;-46
2022/03/23 08:05:14;;;;;;;;;4.75;4.75;17.70;99.90;;;;;;5075577;28;10646;-48
2022/03/23 08:07:45;;;;;;;;;4.25;4.25;17.60;99.90;;;;;;5079771;28;10689;-48
2022/03/23 08:10:14;;;;;;;;;4.50;3.75;17.50;99.90;;;;;;5070270;28;10862;-48
2022/03/23 08:12:44;;;;;;;;;8.50;8.50;17.50;99.90;;;;;;5066944;28;10804;-44
2022/03/23 08:15:15;;;;;;;;;8.75;8.75;17.50;99.90;;;;;;5068979;28;10901;-48
2022/03/23 08:17:45;;;;;;;;;9.00;9.00;17.50;99.90;;;;;;5072793;28;11332;-47
2022/03/23 08:20:35;;;;;;;;;14.75;14.75;17.50;99.90;;;;;;5067256;28;12183;-45
2022/03/23 08:23:08;;;;;;;;;19.25;19.25;17.40;99.90;;;;;;5074639;28;11450;-47
2022/03/23 08:25:42;;;;;;;;;20.00;19.50;17.40;99.90;;;;;;5077131;28;11763;-46
2022/03/23 08:28:14;;;;;;;;;20.50;17.75;17.30;99.90;;;;;;5071776;28;12340;-47
2022/03/23 08:30:45;;;;;;;;;20.00;20.00;17.30;99.90;;;;;;5064571;28;11715;-49
2022/03/23 08:33:17;;;;;;;;;27.50;27.00;17.20;99.90;;;;;;5069545;28;11601;-46
2022/03/23 08:35:48;;;;;;;;;40.25;34.00;17.20;99.90;;;;;;5064692;28;11578;-49
2022/03/23 08:38:20;;;;;;;;;42.25;37.00;17.20;99.90;;;;;;5077279;28;11591;-49
2022/03/23 08:40:50;;;;;;;;;39.75;36.00;17.10;99.90;;;;;;5069038;28;11560;-45
2022/03/23 08:43:20;;;;;;;;;27.25;26.25;17.10;99.90;;;;;;5073080;28;11569;-48
2022/03/23 08:45:52;;;;;;;;;18.50;18.50;16.90;99.90;;;;;;5070284;28;11564;-50
2022/03/23 08:48:22;;;;;;;;;20.50;20.50;16.90;99.90;;;;;;5069224;28;11481;-48
2022/03/23 08:50:53;;;;;;;;;9.50;7.75;16.80;99.90;;;;;;5074213;28;11488;-48
2022/03/23 08:53:25;;;;;;;;;2.50;2.50;16.80;99.90;;;;;;5072235;28;12179;-48
2022/03/23 08:55:57;;;;;;;;;1.00;1.00;16.80;99.90;;;;;;5075737;28;11316;-48
2022/03/23 08:58:27;;;;;;;;;1.00;1.00;16.80;99.90;;;;;;5069425;28;10600;-46
2022/03/23 09:00:57;;;;;;;;;1.25;1.25;16.80;99.90;;;;;;5067057;28;10477;-46
2022/03/23 09:03:28;;;;;;;;;1.00;0.25;16.80;99.90;;;;;;5071383;28;10436;-46
2022/03/23 09:05:59;;;;;;;;;2.00;2.00;16.80;99.90;;;;;;5078485;28;10444;-48
2022/03/23 09:08:29;;;;;;;;;1.00;1.00;16.70;99.90;;;;;;5069659;28;11232;-48
2022/03/23 09:11:01;;;;;;;;;3.00;1.00;16.60;99.90;;;;;;5071174;28;10453;-45
2022/03/23 09:13:31;;;;;;;;;2.00;2.00;16.70;99.90;;;;;;5079210;28;10298;-48
2022/03/23 09:16:02;;;;;;;;;2.50;2.50;16.70;99.90;;;;;;5070563;28;10389;-45
2022/03/23 09:18:32;;;;;;;;;1.00;1.00;16.60;99.90;;;;;;5065567;28;10531;-47
2022/03/23 09:21:02;;;;;;;;;1.00;1.00;16.50;99.90;;;;;;5070617;28;10967;-47
2022/03/23 09:23:38;;;;;;;;;2.00;2.00;16.50;99.90;;;;;;5064791;28;10361;-46
2022/03/23 09:26:10;;;;;;;;;0.00;0.00;16.50;99.90;;;;;;5070281;28;10500;-46
2022/03/23 09:28:41;;;;;;;;;1.75;1.75;16.50;99.90;;;;;;5071238;28;10419;-48
2022/03/23 09:31:12;;;;;;;;;2.00;2.00;16.50;99.90;;;;;;5067411;28;10941;-48
2022/03/23 09:33:48;;;;;;;;;1.00;1.00;16.40;99.90;;;;;;5070454;28;11102;-45
2022/03/23 09:39:09;;;;;;;;;2.00;2.00;16.40;99.90;;;;;;5074171;28;10640;-51
2022/03/23 09:41:40;;;;;;;;;2.00;2.00;16.40;99.90;;;;;;5073560;28;11443;-49
2022/03/23 09:44:11;;;;;;;;;2.50;2.25;16.30;99.90;;;;;;5076563;28;11188;-48
2022/03/23 09:46:45;;;;;;;;;2.50;2.50;16.40;99.90;;;;;;5077145;28;10972;-48
2022/03/23 09:49:16;;;;;;;;;1.75;1.75;16.40;99.90;;;;;;5068387;28;10711;-48
2022/03/23 09:51:51;;;;;;;;;4.00;2.75;16.30;99.90;;;;;;5067203;28;10624;-47
2022/03/23 09:54:22;;;;;;;;;3.00;3.00;16.30;99.90;;;;;;5070029;28;10678;-49
2022/03/23 09:56:53;;;;;;;;;2.00;2.00;16.30;99.90;;;;;;5073000;28;10782;-45
2022/03/23 09:59:24;;;;;;;;;1.25;1.25;16.30;99.90;;;;;;5075891;28;10753;-48
2022/03/23 10:02:01;;;;;;;;;5.75;5.00;16.30;99.90;;;;;;5072700;28;10612;-45
2022/03/23 10:04:49;;;;;;;;;6.00;6.00;16.20;99.90;;;;;;5077637;28;10646;-44
2022/03/23 10:07:27;;;;;;;;;2.25;2.25;16.20;99.90;;;;;;5068866;28;10840;-46
2022/03/23 10:10:34;;;;;;;;;2.75;2.25;16.20;99.90;;;;;;5074207;28;11464;-48
2022/03/23 10:13:22;;;;;;;;;4.00;2.75;16.20;99.90;;;;;;5078966;28;10765;-45
2022/03/23 10:16:29;;;;;;;;;3.00;3.00;16.20;99.90;;;;;;5077954;28;10863;-47
2022/03/23 10:19:00;;;;;;;;;2.50;2.50;16.20;99.90;;;;;;5070717;28;10918;-46
2022/03/23 10:21:40;;;;;;;;;3.00;3.00;16.10;99.90;;;;;;5072903;28;10580;-49
2022/03/23 10:24:10;;;;;;;;;2.50;2.50;16.10;99.90;;;;;;5069525;28;10982;-47
2022/03/23 10:26:42;;;;;;;;;3.00;3.00;16.10;99.90;;;;;;5075110;28;10852;-48
2022/03/23 10:29:22;;;;;;;;;2.25;2.25;16.00;99.90;;;;;;5069384;28;10818;-47
2022/03/23 10:32:10;;;;;;;;;3.75;3.75;16.00;99.90;;;;;;5077904;27;10836;-47
2022/03/23 10:35:01;;;;;;;;;3.00;3.00;15.90;99.90;;;;;;5082570;28;11621;-47
2022/03/23 10:37:34;;;;;;;;;2.00;2.00;15.90;99.90;;;;;;5077538;28;10770;-48
2022/03/23 10:40:14;;;;;;;;;2.75;2.75;15.80;99.90;;;;;;5067865;28;10746;-47
2022/03/23 10:42:45;;;;;;;;;3.00;3.00;15.80;99.90;;;;;;5064042;28;10891;-48
2022/03/23 10:45:20;;;;;;;;;2.00;2.00;15.80;99.90;;;;;;5070867;28;10816;-47
2022/03/23 10:47:51;;;;;;;;;4.00;4.00;15.80;99.90;;;;;;5066121;28;10880;-48
2022/03/23 10:50:24;;;;;;;;;2.00;2.00;15.70;99.90;;;;;;5073768;28;11292;-49
2022/03/23 10:53:04;;;;;;;;;2.25;2.25;15.70;99.90;;;;;;5072319;28;10972;-46
2022/03/23 10:55:39;;;;;;;;;2.00;2.00;15.70;99.90;;;;;;5073920;28;10837;-46
2022/03/23 10:58:24;;;;;;;;;2.00;2.00;15.70;99.90;;;;;;5065540;28;11592;-48
2022/03/23 11:00:57;;;;;;;;;2.00;2.00;15.70;99.90;;;;;;5072406;28;10971;-49
2022/03/23 11:03:40;;;;;;;;;2.00;2.00;15.60;99.90;;;;;;5077556;28;11723;-48
2022/03/23 11:06:15;;;;;;;;;3.25;3.25;15.60;99.90;;;;;;5066827;28;10808;-50
2022/03/23 11:08:46;;;;;;;;;3.00;3.00;15.60;99.90;;;;;;5071588;28;10977;-48
2022/03/23 11:16:55;;;;;;;;;3.50;2.00;15.50;99.90;;;;;;5062551;28;11181;-48
2022/03/23 11:19:26;;;;;;;;;4.00;3.25;15.50;99.90;;;;;;5073522;28;10813;-48
2022/03/23 11:22:12;;;;;;;;;3.00;3.00;15.50;99.90;;;;;;5074586;28;11100;-48
2022/03/23 11:24:47;;;;;;;;;3.75;3.75;15.50;99.90;;;;;;5072827;28;10967;-49
2022/03/23 11:27:20;;;;;;;;;1.00;1.00;15.40;99.90;;;;;;5074197;28;11052;-52
2022/03/23 11:29:51;;;;;;;;;4.50;3.00;15.40;99.90;;;;;;5068740;28;11033;-49
2022/03/23 11:32:27;;;;;;;;;2.00;2.00;15.40;99.90;;;;;;5073736;28;10778;-46
2022/03/23 11:34:59;;;;;;;;;1.75;1.75;15.30;99.90;;;;;;5070509;28;11687;-46
2022/03/23 11:37:30;;;;;;;;;2.50;2.50;15.30;99.90;;;;;;5069201;28;11060;-49
2022/03/23 11:40:01;;;;;;;;;1.75;1.75;15.30;99.90;;;;;;5069551;28;10788;-48
2022/03/23 11:42:31;;;;;;;;;2.75;2.00;15.20;99.90;;;;;;5070062;28;11898;-51
2022/03/23 11:45:01;;;;;;;;;4.00;4.00;15.20;99.90;;;;;;5082260;28;11018;-47
2022/03/23 11:47:43;;;;;;;;;1.00;1.00;15.20;99.90;;;;;;5073687;28;11094;-50
2022/03/23 11:50:48;;;;;;;;;1.25;1.25;15.20;99.90;;;;;;5066479;28;10979;-48
2022/03/23 11:53:36;;;;;;;;;1.00;1.00;15.20;99.90;;;;;;5063964;28;10775;-46
2022/03/23 11:56:06;;;;;;;;;1.00;1.00;15.20;99.90;;;;;;5065572;28;10872;-48
2022/03/23 11:58:41;;;;;;;;;2.00;2.00;15.10;99.90;;;;;;5074274;28;10879;-48
2022/03/23 12:01:14;;;;;;;;;3.00;2.50;15.10;99.90;;;;;;5071564;28;11004;-46
2022/03/23 12:03:50;;;;;;;;;3.00;3.00;15.10;99.90;;;;;;5071600;28;10882;-47
2022/03/23 12:06:45;;;;;;;;;3.00;3.00;15.10;99.90;;;;;;5072465;27;11207;-46
2022/03/23 12:09:44;;;;;;;;;5.50;5.00;15.10;99.90;;;;;;5071668;28;10933;-46
2022/03/23 12:12:34;;;;;;;;;6.00;6.00;15.10;99.90;;;;;;5076190;28;11100;-47
2022/03/23 12:15:26;;;;;;;;;5.75;5.75;15.00;99.90;;;;;;5072902;28;11208;-46
2022/03/23 12:17:57;;;;;;;;;5.25;5.25;15.00;99.90;;;;;;5065505;28;11456;-46
2022/03/23 12:20:32;;;;;;;;;4.00;4.00;15.00;99.90;;;;;;5069567;28;11428;-46
2022/03/23 12:23:12;;;;;;;;;4.75;4.75;15.00;99.90;;;;;;5079364;28;11348;-46
2022/03/23 12:26:11;;;;;;;;;3.00;3.00;15.00;99.90;;;;;;5065985;28;11209;-46
2022/03/23 12:28:57;;;;;;;;;4.00;4.00;14.90;99.90;;;;;;5073071;28;11494;-48
2022/03/23 12:31:39;;;;;;;;;4.00;4.00;15.00;99.90;;;;;;5066672;28;11478;-48
2022/03/23 12:34:25;;;;;;;;;1.75;1.75;15.00;99.90;;;;;;5073817;28;11466;-47
2022/03/23 12:37:07;;;;;;;;;3.75;3.00;15.00;99.90;;;;;;5070674;28;11469;-45
2022/03/23 12:39:47;;;;;;;;;2.00;2.00;15.00;99.90;;;;;;5065067;28;11142;-47
2022/03/23 12:42:31;;;;;;;;;3.25;3.25;14.90;99.90;;;;;;5073273;28;11233;-52
2022/03/23 12:45:06;;;;;;;;;4.00;4.00;14.90;99.90;;;;;;5071430;28;11178;-49
2022/03/23 12:47:39;;;;;;;;;1.00;1.00;14.90;99.90;;;;;;5067997;28;11431;-45
2022/03/23 12:58:48;;;;;;;;;3.00;3.00;14.80;99.90;;;;;;5077490;28;11423;-46
2022/03/23 13:01:30;;;;;;;;;4.50;4.50;14.80;99.90;;;;;;5066388;28;11449;-46
2022/03/23 13:04:01;;;;;;;;;2.00;2.00;14.80;99.90;;;;;;5073137;28;11468;-45
2022/03/23 13:06:33;;;;;;;;;3.00;3.00;14.70;99.90;;;;;;5069513;28;11474;-45
2022/03/23 13:09:09;;;;;;;;;5.00;3.25;14.70;99.90;;;;;;5079642;28;11430;-46
2022/03/23 13:11:44;;;;;;;;;4.25;3.50;14.70;99.90;;;;;;5072468;28;11431;-47
2022/03/23 13:14:14;;;;;;;;;2.25;2.25;14.60;99.90;;;;;;5080761;28;11418;-48
2022/03/23 13:16:47;;;;;;;;;3.00;3.00;14.60;99.90;;;;;;5072396;28;11431;-47
2022/03/23 13:19:19;;;;;;;;;3.00;3.00;14.50;99.90;;;;;;5074358;28;11480;-50
2022/03/23 13:21:50;;;;;;;;;3.00;3.00;14.50;99.90;;;;;;5076262;28;11415;-46
2022/03/23 13:24:25;;;;;;;;;3.00;3.00;14.50;99.90;;;;;;5077900;27;11427;-45
2022/03/23 13:26:57;;;;;;;;;1.25;1.25;14.50;99.90;;;;;;5074093;28;11574;-47
2022/03/23 13:29:28;;;;;;;;;3.75;3.00;14.50;99.90;;;;;;5081751;28;11102;-46
2022/03/23 13:32:04;;;;;;;;;3.00;3.00;14.50;99.90;;;;;;5079984;28;11741;-46
2022/03/23 13:34:40;;;;;;;;;3.00;3.00;14.50;99.90;;;;;;5073293;28;11454;-46
2022/03/23 13:37:11;;;;;;;;;4.50;4.50;14.50;99.90;;;;;;5071473;28;11886;-48
2022/03/23 13:39:49;;;;;;;;;4.75;4.75;14.50;99.90;;;;;;5079890;28;11415;-45
2022/03/23 13:45:14;;;;;;;;;6.00;6.00;14.50;99.90;;;;;;5073252;28;11805;-45
2022/03/23 13:47:44;;;;;;;;;5.50;5.25;14.50;99.90;;;;;;5067268;28;11625;-48
2022/03/23 13:50:15;;;;;;;;;8.75;7.00;14.50;99.90;;;;;;5065684;28;11434;-47
2022/03/23 13:52:48;;;;;;;;;8.00;8.00;14.50;99.90;;;;;;5073374;28;11466;-46